sensor_id;sensor_type;location;lat;lon;timestamp;P1;durP1;ratioP1;P2;durP2;ratioP2
66751;SDS011;53663;42.676;23.238;2023-06-10T00:00:12;11.90;;;4.85;;
66751;SDS011;53663;42.676;23.238;2023-06-10T00:02:41;9.38;;;4.82;;
66751;SDS011;53663;42.676;23.238;2023-06-10T00:05:08;8.35;;;5.13;;
66751;SDS011;53663;42.676;23.238;2023-06-10T00:07:33;10.93;;;5.22;;
66751;SDS011;53663;42.676;23.238;2023-06-10T00:10:03;10.90;;;5.75;;
66751;SDS011;53663;42.676;23.238;2023-06-10T00:12:31;12.13;;;6.00;;
66751;SDS011;53663;42.676;23.238;2023-06-10T00:15:02;9.68;;;6.05;;
66751;SDS011;53663;42.676;23.238;2023-06-10T00:17:31;9.82;;;5.70;;
66751;SDS011;53663;42.676;23.238;2023-06-10T00:19:58;9.40;;;5.40;;
66751;SDS011;53663;42.676;23.238;2023-06-10T00:22:23;15.73;;;5.97;;
66751;SDS011;53663;42.676;23.238;2023-06-10T00:24:54;13.35;;;5.70;;
66751;SDS011;53663;42.676;23.238;2023-06-10T00:27:22;12.07;;;5.28;;
66751;SDS011;53663;42.676;23.238;2023-06-10T00:29:47;9.43;;;5.70;;
66751;SDS011;53663;42.676;23.238;2023-06-10T00:32:13;13.13;;;6.38;;
66751;SDS011;53663;42.676;23.238;2023-06-10T00:34:38;11.68;;;6.53;;
66751;SDS011;53663;42.676;23.238;2023-06-10T00:37:04;12.25;;;6.00;;
66751;SDS011;53663;42.676;23.238;2023-06-10T00:39:29;11.52;;;6.40;;
66751;SDS011;53663;42.676;23.238;2023-06-10T00:41:55;11.43;;;6.65;;
66751;SDS011;53663;42.676;23.238;2023-06-10T00:44:20;9.10;;;6.05;;
66751;SDS011;53663;42.676;23.238;2023-06-10T00:46:46;11.35;;;6.57;;
66751;SDS011;53663;42.676;23.238;2023-06-10T00:49:12;9.65;;;5.97;;
66751;SDS011;53663;42.676;23.238;2023-06-10T00:51:38;19.27;;;6.07;;
66751;SDS011;53663;42.676;23.238;2023-06-10T00:54:05;13.48;;;5.85;;
66751;SDS011;53663;42.676;23.238;2023-06-10T00:56:32;10.38;;;5.97;;
66751;SDS011;53663;42.676;23.238;2023-06-10T00:59:00;17.05;;;5.85;;
66751;SDS011;53663;42.676;23.238;2023-06-10T01:01:27;11.65;;;5.63;;
66751;SDS011;53663;42.676;23.238;2023-06-10T01:03:54;11.75;;;5.40;;
66751;SDS011;53663;42.676;23.238;2023-06-10T01:12:10;11.10;;;5.70;;
66751;SDS011;53663;42.676;23.238;2023-06-10T01:14:41;11.80;;;5.75;;
66751;SDS011;53663;42.676;23.238;2023-06-10T01:17:10;10.07;;;5.53;;
66751;SDS011;53663;42.676;23.238;2023-06-10T01:19:36;12.63;;;5.50;;
66751;SDS011;53663;42.676;23.238;2023-06-10T01:22:02;9.68;;;5.70;;
66751;SDS011;53663;42.676;23.238;2023-06-10T01:24:28;10.23;;;5.50;;
66751;SDS011;53663;42.676;23.238;2023-06-10T01:26:59;10.07;;;5.32;;
66751;SDS011;53663;42.676;23.238;2023-06-10T01:29:43;6.70;;;4.65;;
66751;SDS011;53663;42.676;23.238;2023-06-10T01:32:17;7.38;;;4.32;;
66751;SDS011;53663;42.676;23.238;2023-06-10T01:34:46;8.10;;;5.28;;
66751;SDS011;53663;42.676;23.238;2023-06-10T01:37:15;11.27;;;5.38;;
66751;SDS011;53663;42.676;23.238;2023-06-10T01:39:44;6.63;;;4.57;;
66751;SDS011;53663;42.676;23.238;2023-06-10T01:42:11;8.77;;;4.85;;
66751;SDS011;53663;42.676;23.238;2023-06-10T01:44:38;8.38;;;5.10;;
66751;SDS011;53663;42.676;23.238;2023-06-10T01:47:07;9.35;;;4.68;;
66751;SDS011;53663;42.676;23.238;2023-06-10T01:49:33;10.43;;;5.03;;
66751;SDS011;53663;42.676;23.238;2023-06-10T01:51:59;8.25;;;5.35;;
66751;SDS011;53663;42.676;23.238;2023-06-10T01:54:25;14.30;;;5.53;;
66751;SDS011;53663;42.676;23.238;2023-06-10T01:56:51;7.25;;;4.97;;
66751;SDS011;53663;42.676;23.238;2023-06-10T01:59:16;8.63;;;4.93;;
66751;SDS011;53663;42.676;23.238;2023-06-10T02:01:42;10.27;;;5.30;;
66751;SDS011;53663;42.676;23.238;2023-06-10T02:04:09;12.63;;;5.47;;
66751;SDS011;53663;42.676;23.238;2023-06-10T02:06:34;7.25;;;5.13;;
66751;SDS011;53663;42.676;23.238;2023-06-10T02:09:02;8.63;;;5.10;;
66751;SDS011;53663;42.676;23.238;2023-06-10T02:11:28;12.77;;;5.13;;
66751;SDS011;53663;42.676;23.238;2023-06-10T02:13:54;8.82;;;4.60;;
66751;SDS011;53663;42.676;23.238;2023-06-10T02:16:20;9.07;;;5.13;;
66751;SDS011;53663;42.676;23.238;2023-06-10T02:18:46;7.57;;;4.65;;
66751;SDS011;53663;42.676;23.238;2023-06-10T02:21:12;7.93;;;4.88;;
66751;SDS011;53663;42.676;23.238;2023-06-10T02:23:37;9.15;;;4.60;;
66751;SDS011;53663;42.676;23.238;2023-06-10T02:26:03;9.18;;;4.78;;
66751;SDS011;53663;42.676;23.238;2023-06-10T02:28:28;9.40;;;4.72;;
66751;SDS011;53663;42.676;23.238;2023-06-10T02:30:56;9.52;;;5.50;;
66751;SDS011;53663;42.676;23.238;2023-06-10T02:33:22;7.22;;;4.70;;
66751;SDS011;53663;42.676;23.238;2023-06-10T02:35:48;6.97;;;4.43;;
66751;SDS011;53663;42.676;23.238;2023-06-10T02:38:14;6.82;;;4.40;;
66751;SDS011;53663;42.676;23.238;2023-06-10T02:40:40;7.30;;;4.55;;
66751;SDS011;53663;42.676;23.238;2023-06-10T02:43:05;8.07;;;4.70;;
66751;SDS011;53663;42.676;23.238;2023-06-10T02:45:32;7.40;;;4.95;;
66751;SDS011;53663;42.676;23.238;2023-06-10T02:48:00;10.73;;;4.70;;
66751;SDS011;53663;42.676;23.238;2023-06-10T02:50:25;8.20;;;4.25;;
66751;SDS011;53663;42.676;23.238;2023-06-10T02:53:18;11.77;;;5.10;;
66751;SDS011;53663;42.676;23.238;2023-06-10T02:55:49;12.40;;;5.55;;
66751;SDS011;53663;42.676;23.238;2023-06-10T02:58:17;11.57;;;5.13;;
66751;SDS011;53663;42.676;23.238;2023-06-10T03:00:43;8.13;;;5.20;;
66751;SDS011;53663;42.676;23.238;2023-06-10T03:03:10;10.35;;;5.40;;
66751;SDS011;53663;42.676;23.238;2023-06-10T03:05:44;9.73;;;4.95;;
66751;SDS011;53663;42.676;23.238;2023-06-10T03:08:10;9.10;;;5.18;;
66751;SDS011;53663;42.676;23.238;2023-06-10T03:10:39;10.10;;;4.95;;
66751;SDS011;53663;42.676;23.238;2023-06-10T03:13:06;10.75;;;4.90;;
66751;SDS011;53663;42.676;23.238;2023-06-10T03:15:31;6.80;;;4.90;;
66751;SDS011;53663;42.676;23.238;2023-06-10T03:17:59;7.40;;;5.03;;
66751;SDS011;53663;42.676;23.238;2023-06-10T03:20:26;7.22;;;4.80;;
66751;SDS011;53663;42.676;23.238;2023-06-10T03:22:53;9.60;;;5.40;;
66751;SDS011;53663;42.676;23.238;2023-06-10T03:25:18;10.15;;;5.47;;
66751;SDS011;53663;42.676;23.238;2023-06-10T03:27:49;19.40;;;6.40;;
66751;SDS011;53663;42.676;23.238;2023-06-10T03:30:15;11.02;;;6.82;;
66751;SDS011;53663;42.676;23.238;2023-06-10T03:32:42;9.15;;;5.72;;
66751;SDS011;53663;42.676;23.238;2023-06-10T03:35:10;9.38;;;6.00;;
66751;SDS011;53663;42.676;23.238;2023-06-10T03:37:37;10.35;;;5.90;;
66751;SDS011;53663;42.676;23.238;2023-06-10T03:40:03;11.57;;;5.82;;
66751;SDS011;53663;42.676;23.238;2023-06-10T03:42:32;12.10;;;5.60;;
66751;SDS011;53663;42.676;23.238;2023-06-10T03:44:58;8.50;;;5.72;;
66751;SDS011;53663;42.676;23.238;2023-06-10T03:47:24;10.75;;;5.68;;
66751;SDS011;53663;42.676;23.238;2023-06-10T03:49:51;7.47;;;5.40;;
66751;SDS011;53663;42.676;23.238;2023-06-10T03:52:17;9.05;;;5.68;;
66751;SDS011;53663;42.676;23.238;2023-06-10T03:54:42;10.25;;;5.57;;
66751;SDS011;53663;42.676;23.238;2023-06-10T03:57:08;8.75;;;5.60;;
66751;SDS011;53663;42.676;23.238;2023-06-10T03:59:34;8.27;;;5.50;;
66751;SDS011;53663;42.676;23.238;2023-06-10T04:01:59;9.55;;;5.38;;
66751;SDS011;53663;42.676;23.238;2023-06-10T04:04:25;8.98;;;5.60;;
66751;SDS011;53663;42.676;23.238;2023-06-10T04:06:51;8.82;;;5.22;;
66751;SDS011;53663;42.676;23.238;2023-06-10T04:09:16;13.02;;;5.20;;
66751;SDS011;53663;42.676;23.238;2023-06-10T04:11:42;7.07;;;4.55;;
66751;SDS011;53663;42.676;23.238;2023-06-10T04:14:08;9.35;;;5.15;;
66751;SDS011;53663;42.676;23.238;2023-06-10T04:16:34;9.60;;;4.88;;
66751;SDS011;53663;42.676;23.238;2023-06-10T04:19:00;6.95;;;5.13;;
66751;SDS011;53663;42.676;23.238;2023-06-10T04:21:27;10.60;;;5.85;;
66751;SDS011;53663;42.676;23.238;2023-06-10T04:23:52;9.48;;;5.68;;
66751;SDS011;53663;42.676;23.238;2023-06-10T04:26:18;9.18;;;5.70;;
66751;SDS011;53663;42.676;23.238;2023-06-10T04:28:44;10.50;;;5.72;;
66751;SDS011;53663;42.676;23.238;2023-06-10T04:31:10;12.35;;;5.65;;
66751;SDS011;53663;42.676;23.238;2023-06-10T04:33:37;9.55;;;5.90;;
66751;SDS011;53663;42.676;23.238;2023-06-10T04:36:04;12.00;;;5.72;;
66751;SDS011;53663;42.676;23.238;2023-06-10T04:38:32;9.45;;;6.10;;
66751;SDS011;53663;42.676;23.238;2023-06-10T04:40:58;11.50;;;5.80;;
66751;SDS011;53663;42.676;23.238;2023-06-10T04:43:27;9.07;;;6.53;;
66751;SDS011;53663;42.676;23.238;2023-06-10T04:45:57;10.60;;;6.97;;
66751;SDS011;53663;42.676;23.238;2023-06-10T04:48:23;13.45;;;7.07;;
66751;SDS011;53663;42.676;23.238;2023-06-10T04:50:50;9.45;;;6.07;;
66751;SDS011;53663;42.676;23.238;2023-06-10T04:53:17;11.90;;;6.03;;
66751;SDS011;53663;42.676;23.238;2023-06-10T04:55:45;19.38;;;5.57;;
66751;SDS011;53663;42.676;23.238;2023-06-10T04:58:11;11.82;;;5.72;;
66751;SDS011;53663;42.676;23.238;2023-06-10T05:00:37;8.88;;;6.00;;
66751;SDS011;53663;42.676;23.238;2023-06-10T05:03:02;7.78;;;5.45;;
66751;SDS011;53663;42.676;23.238;2023-06-10T05:05:28;11.77;;;6.72;;
66751;SDS011;53663;42.676;23.238;2023-06-10T05:07:53;7.90;;;5.47;;
66751;SDS011;53663;42.676;23.238;2023-06-10T05:10:19;12.38;;;6.18;;
66751;SDS011;53663;42.676;23.238;2023-06-10T05:12:45;11.32;;;6.15;;
66751;SDS011;53663;42.676;23.238;2023-06-10T05:15:10;11.55;;;6.10;;
66751;SDS011;53663;42.676;23.238;2023-06-10T05:17:36;8.88;;;6.30;;
66751;SDS011;53663;42.676;23.238;2023-06-10T05:20:02;8.63;;;6.72;;
66751;SDS011;53663;42.676;23.238;2023-06-10T05:22:28;8.40;;;6.32;;
66751;SDS011;53663;42.676;23.238;2023-06-10T05:24:54;11.63;;;6.22;;
66751;SDS011;53663;42.676;23.238;2023-06-10T05:27:19;18.52;;;6.47;;
66751;SDS011;53663;42.676;23.238;2023-06-10T05:29:46;12.13;;;5.68;;
66751;SDS011;53663;42.676;23.238;2023-06-10T05:32:11;8.63;;;5.80;;
66751;SDS011;53663;42.676;23.238;2023-06-10T05:34:37;10.43;;;5.45;;
66751;SDS011;53663;42.676;23.238;2023-06-10T05:37:03;8.60;;;5.60;;
66751;SDS011;53663;42.676;23.238;2023-06-10T05:39:29;8.25;;;4.90;;
66751;SDS011;53663;42.676;23.238;2023-06-10T05:41:54;10.70;;;5.10;;
66751;SDS011;53663;42.676;23.238;2023-06-10T05:44:20;10.48;;;5.82;;
66751;SDS011;53663;42.676;23.238;2023-06-10T05:46:46;9.43;;;5.50;;
66751;SDS011;53663;42.676;23.238;2023-06-10T05:49:11;9.60;;;5.55;;
66751;SDS011;53663;42.676;23.238;2023-06-10T05:51:37;27.83;;;11.45;;
66751;SDS011;53663;42.676;23.238;2023-06-10T05:54:03;41.80;;;17.20;;
66751;SDS011;53663;42.676;23.238;2023-06-10T05:56:28;21.92;;;8.63;;
66751;SDS011;53663;42.676;23.238;2023-06-10T05:58:54;13.77;;;6.50;;
66751;SDS011;53663;42.676;23.238;2023-06-10T06:01:20;7.15;;;4.43;;
66751;SDS011;53663;42.676;23.238;2023-06-10T06:03:45;8.70;;;4.30;;
66751;SDS011;53663;42.676;23.238;2023-06-10T06:06:11;6.70;;;4.00;;
66751;SDS011;53663;42.676;23.238;2023-06-10T06:08:36;7.15;;;3.83;;
66751;SDS011;53663;42.676;23.238;2023-06-10T06:11:02;7.50;;;3.80;;
66751;SDS011;53663;42.676;23.238;2023-06-10T06:13:27;6.00;;;4.00;;
66751;SDS011;53663;42.676;23.238;2023-06-10T06:15:53;7.03;;;4.63;;
66751;SDS011;53663;42.676;23.238;2023-06-10T06:18:18;7.15;;;4.15;;
66751;SDS011;53663;42.676;23.238;2023-06-10T06:20:44;11.88;;;5.60;;
66751;SDS011;53663;42.676;23.238;2023-06-10T06:23:10;9.23;;;4.75;;
66751;SDS011;53663;42.676;23.238;2023-06-10T06:25:35;8.48;;;4.70;;
66751;SDS011;53663;42.676;23.238;2023-06-10T06:28:02;6.35;;;4.63;;
66751;SDS011;53663;42.676;23.238;2023-06-10T06:30:27;12.40;;;5.60;;
66751;SDS011;53663;42.676;23.238;2023-06-10T06:32:53;12.43;;;5.85;;
66751;SDS011;53663;42.676;23.238;2023-06-10T06:35:19;8.77;;;5.05;;
66751;SDS011;53663;42.676;23.238;2023-06-10T06:37:44;8.60;;;4.68;;
66751;SDS011;53663;42.676;23.238;2023-06-10T06:40:24;13.15;;;3.88;;
66751;SDS011;53663;42.676;23.238;2023-06-10T06:42:50;5.72;;;3.97;;
66751;SDS011;53663;42.676;23.238;2023-06-10T06:45:35;8.32;;;4.40;;
66751;SDS011;53663;42.676;23.238;2023-06-10T06:48:00;8.75;;;4.32;;
66751;SDS011;53663;42.676;23.238;2023-06-10T06:50:26;8.40;;;4.32;;
66751;SDS011;53663;42.676;23.238;2023-06-10T06:52:52;8.05;;;4.35;;
66751;SDS011;53663;42.676;23.238;2023-06-10T06:55:17;8.35;;;4.45;;
66751;SDS011;53663;42.676;23.238;2023-06-10T06:57:43;9.27;;;3.80;;
66751;SDS011;53663;42.676;23.238;2023-06-10T07:00:09;11.23;;;4.10;;
66751;SDS011;53663;42.676;23.238;2023-06-10T07:02:35;9.50;;;3.95;;
66751;SDS011;53663;42.676;23.238;2023-06-10T07:05:01;9.40;;;3.88;;
66751;SDS011;53663;42.676;23.238;2023-06-10T07:07:26;5.40;;;3.80;;
66751;SDS011;53663;42.676;23.238;2023-06-10T07:09:52;6.05;;;3.80;;
66751;SDS011;53663;42.676;23.238;2023-06-10T07:12:17;4.82;;;3.30;;
66751;SDS011;53663;42.676;23.238;2023-06-10T07:14:43;5.22;;;3.60;;
66751;SDS011;53663;42.676;23.238;2023-06-10T07:17:09;8.80;;;4.07;;
66751;SDS011;53663;42.676;23.238;2023-06-10T07:19:35;9.98;;;3.40;;
66751;SDS011;53663;42.676;23.238;2023-06-10T07:22:01;6.32;;;4.00;;
66751;SDS011;53663;42.676;23.238;2023-06-10T07:24:26;6.13;;;3.25;;
66751;SDS011;53663;42.676;23.238;2023-06-10T07:26:52;7.00;;;3.70;;
66751;SDS011;53663;42.676;23.238;2023-06-10T07:29:17;7.60;;;3.50;;
66751;SDS011;53663;42.676;23.238;2023-06-10T07:31:43;13.85;;;6.85;;
66751;SDS011;53663;42.676;23.238;2023-06-10T07:34:08;10.90;;;4.93;;
66751;SDS011;53663;42.676;23.238;2023-06-10T07:36:34;5.18;;;3.30;;
66751;SDS011;53663;42.676;23.238;2023-06-10T07:38:59;6.90;;;4.53;;
66751;SDS011;53663;42.676;23.238;2023-06-10T07:41:25;15.05;;;4.20;;
66751;SDS011;53663;42.676;23.238;2023-06-10T07:43:51;5.55;;;3.50;;
66751;SDS011;53663;42.676;23.238;2023-06-10T07:46:22;4.93;;;3.10;;
66751;SDS011;53663;42.676;23.238;2023-06-10T07:48:49;7.28;;;4.15;;
66751;SDS011;53663;42.676;23.238;2023-06-10T07:51:15;6.50;;;3.65;;
66751;SDS011;53663;42.676;23.238;2023-06-10T07:53:41;4.90;;;3.05;;
66751;SDS011;53663;42.676;23.238;2023-06-10T07:56:07;5.70;;;3.65;;
66751;SDS011;53663;42.676;23.238;2023-06-10T07:58:33;8.55;;;4.05;;
66751;SDS011;53663;42.676;23.238;2023-06-10T08:00:58;9.57;;;4.80;;
66751;SDS011;53663;42.676;23.238;2023-06-10T08:03:24;4.40;;;3.20;;
66751;SDS011;53663;42.676;23.238;2023-06-10T08:05:49;13.07;;;4.68;;
66751;SDS011;53663;42.676;23.238;2023-06-10T08:08:15;11.25;;;5.45;;
66751;SDS011;53663;42.676;23.238;2023-06-10T08:10:40;4.72;;;2.80;;
66751;SDS011;53663;42.676;23.238;2023-06-10T08:13:07;5.72;;;3.20;;
66751;SDS011;53663;42.676;23.238;2023-06-10T08:15:33;6.97;;;4.47;;
66751;SDS011;53663;42.676;23.238;2023-06-10T08:17:58;6.47;;;4.07;;
66751;SDS011;53663;42.676;23.238;2023-06-10T08:20:24;6.57;;;3.58;;
66751;SDS011;53663;42.676;23.238;2023-06-10T08:22:50;7.65;;;3.70;;
66751;SDS011;53663;42.676;23.238;2023-06-10T08:25:16;6.50;;;3.70;;
66751;SDS011;53663;42.676;23.238;2023-06-10T08:27:41;9.05;;;3.45;;
66751;SDS011;53663;42.676;23.238;2023-06-10T08:30:07;4.88;;;3.17;;
66751;SDS011;53663;42.676;23.238;2023-06-10T08:32:33;12.65;;;3.63;;
66751;SDS011;53663;42.676;23.238;2023-06-10T08:34:59;11.45;;;3.40;;
66751;SDS011;53663;42.676;23.238;2023-06-10T08:37:24;4.45;;;3.10;;
66751;SDS011;53663;42.676;23.238;2023-06-10T08:39:50;4.47;;;3.10;;
66751;SDS011;53663;42.676;23.238;2023-06-10T08:42:28;5.38;;;3.20;;
66751;SDS011;53663;42.676;23.238;2023-06-10T08:44:58;7.20;;;3.40;;
66751;SDS011;53663;42.676;23.238;2023-06-10T08:47:28;6.53;;;3.33;;
66751;SDS011;53663;42.676;23.238;2023-06-10T08:49:56;10.27;;;3.43;;
66751;SDS011;53663;42.676;23.238;2023-06-10T08:52:29;6.55;;;3.28;;
66751;SDS011;53663;42.676;23.238;2023-06-10T08:55:00;6.07;;;3.90;;
66751;SDS011;53663;42.676;23.238;2023-06-10T08:57:29;6.00;;;3.40;;
66751;SDS011;53663;42.676;23.238;2023-06-10T08:59:56;6.18;;;3.38;;
66751;SDS011;53663;42.676;23.238;2023-06-10T09:02:22;6.50;;;3.80;;
66751;SDS011;53663;42.676;23.238;2023-06-10T09:04:49;5.95;;;3.22;;
66751;SDS011;53663;42.676;23.238;2023-06-10T09:07:18;5.90;;;3.40;;
66751;SDS011;53663;42.676;23.238;2023-06-10T09:09:45;8.32;;;3.55;;
66751;SDS011;53663;42.676;23.238;2023-06-10T09:12:11;11.70;;;3.78;;
66751;SDS011;53663;42.676;23.238;2023-06-10T09:14:38;10.27;;;3.67;;
66751;SDS011;53663;42.676;23.238;2023-06-10T09:17:05;7.60;;;3.30;;
66751;SDS011;53663;42.676;23.238;2023-06-10T09:19:31;6.82;;;3.38;;
66751;SDS011;53663;42.676;23.238;2023-06-10T09:21:57;7.55;;;3.58;;
66751;SDS011;53663;42.676;23.238;2023-06-10T09:24:23;5.38;;;3.30;;
66751;SDS011;53663;42.676;23.238;2023-06-10T09:26:49;5.25;;;3.20;;
66751;SDS011;53663;42.676;23.238;2023-06-10T09:29:16;5.43;;;3.20;;
66751;SDS011;53663;42.676;23.238;2023-06-10T09:31:42;7.70;;;3.13;;
66751;SDS011;53663;42.676;23.238;2023-06-10T09:34:13;7.38;;;3.20;;
66751;SDS011;53663;42.676;23.238;2023-06-10T09:36:40;5.97;;;3.20;;
66751;SDS011;53663;42.676;23.238;2023-06-10T09:39:16;7.40;;;3.45;;
66751;SDS011;53663;42.676;23.238;2023-06-10T09:41:42;4.95;;;2.80;;
66751;SDS011;53663;42.676;23.238;2023-06-10T09:44:13;5.60;;;2.67;;
66751;SDS011;53663;42.676;23.238;2023-06-10T09:46:45;3.63;;;2.35;;
66751;SDS011;53663;42.676;23.238;2023-06-10T09:49:12;3.60;;;2.43;;
66751;SDS011;53663;42.676;23.238;2023-06-10T09:51:37;5.68;;;3.97;;
66751;SDS011;53663;42.676;23.238;2023-06-10T09:54:13;6.07;;;3.78;;
66751;SDS011;53663;42.676;23.238;2023-06-10T09:56:39;6.93;;;2.60;;
66751;SDS011;53663;42.676;23.238;2023-06-10T09:59:07;3.25;;;2.60;;
66751;SDS011;53663;42.676;23.238;2023-06-10T10:01:33;5.15;;;2.65;;
66751;SDS011;53663;42.676;23.238;2023-06-10T10:03:59;6.15;;;3.00;;
66751;SDS011;53663;42.676;23.238;2023-06-10T10:06:26;4.28;;;2.78;;
66751;SDS011;53663;42.676;23.238;2023-06-10T10:08:52;5.03;;;2.60;;
66751;SDS011;53663;42.676;23.238;2023-06-10T10:11:19;9.75;;;3.45;;
66751;SDS011;53663;42.676;23.238;2023-06-10T10:13:49;5.13;;;3.00;;
66751;SDS011;53663;42.676;23.238;2023-06-10T10:16:17;5.55;;;2.83;;
66751;SDS011;53663;42.676;23.238;2023-06-10T10:18:47;2.80;;;2.55;;
66751;SDS011;53663;42.676;23.238;2023-06-10T10:21:19;4.15;;;2.97;;
66751;SDS011;53663;42.676;23.238;2023-06-10T10:23:52;7.05;;;3.42;;
66751;SDS011;53663;42.676;23.238;2023-06-10T10:26:34;4.70;;;3.13;;
66751;SDS011;53663;42.676;23.238;2023-06-10T10:29:07;5.15;;;3.03;;
66751;SDS011;53663;42.676;23.238;2023-06-10T10:31:40;4.82;;;3.30;;
66751;SDS011;53663;42.676;23.238;2023-06-10T10:34:11;7.32;;;3.25;;
66751;SDS011;53663;42.676;23.238;2023-06-10T10:36:40;8.15;;;3.25;;
66751;SDS011;53663;42.676;23.238;2023-06-10T10:39:06;6.65;;;3.13;;
66751;SDS011;53663;42.676;23.238;2023-06-10T10:41:32;7.25;;;2.65;;
66751;SDS011;53663;42.676;23.238;2023-06-10T10:43:58;5.05;;;3.90;;
66751;SDS011;53663;42.676;23.238;2023-06-10T10:46:25;12.50;;;6.63;;
66751;SDS011;53663;42.676;23.238;2023-06-10T10:48:54;4.28;;;3.25;;
66751;SDS011;53663;42.676;23.238;2023-06-10T10:51:22;7.00;;;3.30;;
66751;SDS011;53663;42.676;23.238;2023-06-10T10:56:45;4.70;;;3.45;;
66751;SDS011;53663;42.676;23.238;2023-06-10T10:59:46;6.53;;;3.30;;
66751;SDS011;53663;42.676;23.238;2023-06-10T11:02:35;4.28;;;3.13;;
66751;SDS011;53663;42.676;23.238;2023-06-10T11:05:01;4.90;;;2.97;;
66751;SDS011;53663;42.676;23.238;2023-06-10T11:07:30;4.72;;;3.00;;
66751;SDS011;53663;42.676;23.238;2023-06-10T11:10:00;4.72;;;3.00;;
66751;SDS011;53663;42.676;23.238;2023-06-10T11:15:32;5.70;;;3.20;;
66751;SDS011;53663;42.676;23.238;2023-06-10T11:18:12;4.57;;;2.72;;
66751;SDS011;53663;42.676;23.238;2023-06-10T11:29:02;5.93;;;2.83;;
66751;SDS011;53663;42.676;23.238;2023-06-10T11:31:30;5.88;;;2.53;;
66751;SDS011;53663;42.676;23.238;2023-06-10T11:34:06;9.80;;;3.00;;
66751;SDS011;53663;42.676;23.238;2023-06-10T11:36:33;4.43;;;3.30;;
66751;SDS011;53663;42.676;23.238;2023-06-10T11:39:04;6.90;;;2.72;;
66751;SDS011;53663;42.676;23.238;2023-06-10T11:41:31;7.00;;;3.30;;
66751;SDS011;53663;42.676;23.238;2023-06-10T11:44:04;6.68;;;2.90;;
66751;SDS011;53663;42.676;23.238;2023-06-10T11:46:33;5.28;;;2.88;;
66751;SDS011;53663;42.676;23.238;2023-06-10T11:48:59;4.75;;;3.10;;
66751;SDS011;53663;42.676;23.238;2023-06-10T11:51:25;5.88;;;3.13;;
66751;SDS011;53663;42.676;23.238;2023-06-10T11:53:52;5.45;;;3.17;;
66751;SDS011;53663;42.676;23.238;2023-06-10T11:56:28;5.78;;;3.08;;
66751;SDS011;53663;42.676;23.238;2023-06-10T11:58:55;11.63;;;3.58;;
66751;SDS011;53663;42.676;23.238;2023-06-10T12:01:25;11.43;;;3.72;;
66751;SDS011;53663;42.676;23.238;2023-06-10T12:03:58;4.47;;;3.63;;
66751;SDS011;53663;42.676;23.238;2023-06-10T12:06:43;5.55;;;3.55;;
66751;SDS011;53663;42.676;23.238;2023-06-10T12:17:15;6.55;;;3.20;;
66751;SDS011;53663;42.676;23.238;2023-06-10T12:19:40;6.63;;;3.50;;
66751;SDS011;53663;42.676;23.238;2023-06-10T12:22:05;6.00;;;3.03;;
66751;SDS011;53663;42.676;23.238;2023-06-10T12:24:31;6.78;;;3.17;;
66751;SDS011;53663;42.676;23.238;2023-06-10T12:26:57;7.32;;;3.30;;
66751;SDS011;53663;42.676;23.238;2023-06-10T12:29:23;6.97;;;3.85;;
66751;SDS011;53663;42.676;23.238;2023-06-10T12:32:34;7.93;;;3.50;;
66751;SDS011;53663;42.676;23.238;2023-06-10T12:34:41;10.35;;;3.80;;
66751;SDS011;53663;42.676;23.238;2023-06-10T12:37:10;4.43;;;3.60;;
66751;SDS011;53663;42.676;23.238;2023-06-10T12:39:41;4.25;;;3.40;;
66751;SDS011;53663;42.676;23.238;2023-06-10T12:42:08;4.15;;;3.22;;
66751;SDS011;53663;42.676;23.238;2023-06-10T12:44:35;6.18;;;3.30;;
66751;SDS011;53663;42.676;23.238;2023-06-10T12:47:08;5.47;;;3.25;;
66751;SDS011;53663;42.676;23.238;2023-06-10T12:49:35;8.13;;;3.50;;
66751;SDS011;53663;42.676;23.238;2023-06-10T12:52:01;6.68;;;3.30;;
66751;SDS011;53663;42.676;23.238;2023-06-10T12:54:27;6.68;;;2.92;;
66751;SDS011;53663;42.676;23.238;2023-06-10T12:56:52;4.15;;;3.17;;
66751;SDS011;53663;42.676;23.238;2023-06-10T12:59:18;8.93;;;5.22;;
66751;SDS011;53663;42.676;23.238;2023-06-10T13:01:44;8.70;;;4.15;;
66751;SDS011;53663;42.676;23.238;2023-06-10T13:04:16;8.20;;;3.90;;
66751;SDS011;53663;42.676;23.238;2023-06-10T13:06:42;7.43;;;3.78;;
66751;SDS011;53663;42.676;23.238;2023-06-10T13:09:07;5.40;;;3.15;;
66751;SDS011;53663;42.676;23.238;2023-06-10T13:11:33;5.03;;;2.97;;
66751;SDS011;53663;42.676;23.238;2023-06-10T13:14:00;4.63;;;3.55;;
66751;SDS011;53663;42.676;23.238;2023-06-10T13:16:27;8.95;;;3.30;;
66751;SDS011;53663;42.676;23.238;2023-06-10T13:18:54;9.77;;;3.30;;
66751;SDS011;53663;42.676;23.238;2023-06-10T13:21:19;7.70;;;3.55;;
66751;SDS011;53663;42.676;23.238;2023-06-10T13:23:45;8.07;;;3.60;;
66751;SDS011;53663;42.676;23.238;2023-06-10T13:26:13;5.38;;;3.35;;
66751;SDS011;53663;42.676;23.238;2023-06-10T13:28:40;7.03;;;3.67;;
66751;SDS011;53663;42.676;23.238;2023-06-10T13:31:05;4.80;;;3.30;;
66751;SDS011;53663;42.676;23.238;2023-06-10T13:33:31;5.30;;;3.35;;
66751;SDS011;53663;42.676;23.238;2023-06-10T13:35:56;6.18;;;3.55;;
66751;SDS011;53663;42.676;23.238;2023-06-10T13:38:22;4.55;;;3.13;;
66751;SDS011;53663;42.676;23.238;2023-06-10T13:40:47;10.13;;;3.13;;
66751;SDS011;53663;42.676;23.238;2023-06-10T13:43:13;12.80;;;4.10;;
66751;SDS011;53663;42.676;23.238;2023-06-10T13:45:38;5.57;;;3.42;;
66751;SDS011;53663;42.676;23.238;2023-06-10T13:48:04;7.57;;;3.70;;
66751;SDS011;53663;42.676;23.238;2023-06-10T13:50:31;7.72;;;3.30;;
66751;SDS011;53663;42.676;23.238;2023-06-10T13:52:56;6.05;;;3.47;;
66751;SDS011;53663;42.676;23.238;2023-06-10T13:55:22;7.10;;;3.45;;
66751;SDS011;53663;42.676;23.238;2023-06-10T13:57:49;6.95;;;3.67;;
66751;SDS011;53663;42.676;23.238;2023-06-10T14:00:15;4.60;;;3.20;;
66751;SDS011;53663;42.676;23.238;2023-06-10T14:02:41;5.03;;;3.33;;
66751;SDS011;53663;42.676;23.238;2023-06-10T14:05:07;5.47;;;3.50;;
66751;SDS011;53663;42.676;23.238;2023-06-10T14:07:33;6.50;;;3.50;;
66751;SDS011;53663;42.676;23.238;2023-06-10T14:10:00;5.82;;;3.42;;
66751;SDS011;53663;42.676;23.238;2023-06-10T14:12:25;7.85;;;3.47;;
66751;SDS011;53663;42.676;23.238;2023-06-10T14:14:51;5.53;;;3.53;;
66751;SDS011;53663;42.676;23.238;2023-06-10T14:17:16;5.75;;;3.40;;
66751;SDS011;53663;42.676;23.238;2023-06-10T14:19:42;6.15;;;3.40;;
66751;SDS011;53663;42.676;23.238;2023-06-10T14:22:07;5.35;;;3.20;;
66751;SDS011;53663;42.676;23.238;2023-06-10T14:24:33;9.18;;;3.60;;
66751;SDS011;53663;42.676;23.238;2023-06-10T14:27:00;6.55;;;3.38;;
66751;SDS011;53663;42.676;23.238;2023-06-10T14:29:25;5.28;;;3.70;;
66751;SDS011;53663;42.676;23.238;2023-06-10T14:31:54;6.05;;;3.53;;
66751;SDS011;53663;42.676;23.238;2023-06-10T14:34:20;5.75;;;3.65;;
66751;SDS011;53663;42.676;23.238;2023-06-10T14:36:45;6.13;;;3.47;;
66751;SDS011;53663;42.676;23.238;2023-06-10T14:39:11;8.43;;;3.20;;
66751;SDS011;53663;42.676;23.238;2023-06-10T14:41:36;4.70;;;2.95;;
66751;SDS011;53663;42.676;23.238;2023-06-10T14:44:02;6.60;;;3.92;;
66751;SDS011;53663;42.676;23.238;2023-06-10T14:46:28;7.43;;;3.72;;
66751;SDS011;53663;42.676;23.238;2023-06-10T14:48:53;6.78;;;3.67;;
66751;SDS011;53663;42.676;23.238;2023-06-10T14:51:19;5.82;;;3.53;;
66751;SDS011;53663;42.676;23.238;2023-06-10T14:53:46;9.88;;;4.57;;
66751;SDS011;53663;42.676;23.238;2023-06-10T14:56:12;11.73;;;4.68;;
66751;SDS011;53663;42.676;23.238;2023-06-10T14:58:37;8.55;;;4.07;;